Time;durP1;ratioP1;P1;durP2;ratioP2;P2;SDS_P1;SDS_P2;PMS_P1;PMS_P2;Temp;Humidity;BMP_temperature;BMP_pressure;BME280_temperature;BME280_humidity;BME280_pressure;Samples;Min_cycle;Max_cycle;Signal;HPM_P1;HPM_P2
2024/03/22 00:00:00;;;;;;;15.00;6.80;;;;;;;1.39;100.00;100666.69;105634;1255;71431;-54
2024/03/22 00:02:27;;;;;;;10.90;6.80;;;;;;;1.39;100.00;100666.36;105831;1257;60421;-55
2024/03/22 00:04:55;;;;;;;11.80;6.40;;;;;;;1.40;100.00;100666.46;105398;1254;60422;-53
2024/03/22 00:07:23;;;;;;;10.90;6.80;;;;;;;1.40;100.00;100665.95;105725;1257;73923;-53
2024/03/22 00:09:50;;;;;;;11.30;6.90;;;;;;;1.40;100.00;100665.80;105673;1256;65845;-53
2024/03/22 00:12:18;;;;;;;12.60;6.80;;;;;;;1.39;100.00;100666.98;105668;1260;72779;-53
2024/03/22 00:14:45;;;;;;;9.50;6.00;;;;;;;1.39;100.00;100665.52;105621;1257;60527;-54
2024/03/22 00:17:13;;;;;;;14.40;6.50;;;;;;;1.38;100.00;100665.90;105662;1259;60444;-53
2024/03/22 00:19:40;;;;;;;10.40;6.10;;;;;;;1.39;100.00;100669.13;105766;1253;72660;-55
2024/03/22 00:22:09;;;;;;;12.40;6.40;;;;;;;1.40;100.00;100670.40;105711;1261;65527;-55
2024/03/22 00:24:36;;;;;;;10.50;6.30;;;;;;;1.41;100.00;100671.37;105634;1257;73119;-53
2024/03/22 00:27:04;;;;;;;11.30;6.00;;;;;;;1.40;100.00;100670.89;105438;1257;60943;-55
2024/03/22 00:29:31;;;;;;;10.90;6.30;;;;;;;1.40;100.00;100669.38;105720;1258;60364;-55
2024/03/22 00:31:59;;;;;;;11.90;6.60;;;;;;;1.39;100.00;100666.02;105673;1257;73875;-55
2024/03/22 00:34:27;;;;;;;10.20;5.50;;;;;;;1.40;100.00;100666.29;105950;1257;65997;-53
2024/03/22 00:36:55;;;;;;;12.40;5.70;;;;;;;1.40;100.00;100660.32;105730;1255;73242;-53
2024/03/22 00:39:22;;;;;;;10.20;5.60;;;;;;;1.40;100.00;100654.80;106260;1257;60603;-53
2024/03/22 00:41:50;;;;;;;9.30;5.40;;;;;;;1.41;100.00;100656.97;105697;1257;60402;-53
2024/03/22 00:44:17;;;;;;;9.60;5.30;;;;;;;1.42;100.00;100658.41;105809;1254;72597;-53
2024/03/22 00:46:45;;;;;;;8.30;4.90;;;;;;;1.43;100.00;100659.02;105302;1258;66998;-52
2024/03/22 00:49:12;;;;;;;8.70;5.40;;;;;;;1.43;100.00;100660.56;105304;1258;71382;-54
2024/03/22 00:51:43;;;;;;;8.00;5.00;;;;;;;1.44;100.00;100661.70;105580;1258;60420;-53
2024/03/22 00:54:10;;;;;;;8.60;5.00;;;;;;;1.44;100.00;100660.88;105665;1258;59542;-53
2024/03/22 00:56:38;;;;;;;9.50;5.00;;;;;;;1.44;100.00;100659.31;105637;1256;72726;-53
2024/03/22 00:59:06;;;;;;;8.40;4.30;;;;;;;1.45;100.00;100660.78;106011;1258;65648;-53
2024/03/22 01:01:34;;;;;;;9.60;4.50;;;;;;;1.46;100.00;100657.65;107580;1257;72731;-55
2024/03/22 01:04:02;;;;;;;7.10;4.10;;;;;;;1.46;100.00;100656.41;107685;1254;60450;-54
2024/03/22 01:06:29;;;;;;;7.10;3.90;;;;;;;1.45;100.00;100660.57;107214;1252;60464;-52
2024/03/22 01:08:57;;;;;;;7.10;4.10;;;;;;;1.46;100.00;100658.14;105644;1260;73871;-52
2024/03/22 01:11:24;;;;;;;8.70;4.60;;;;;;;1.47;100.00;100657.02;105545;1257;67105;-53
2024/03/22 01:13:52;;;;;;;7.00;3.50;;;;;;;1.45;100.00;100653.19;106001;1253;71436;-54
2024/03/22 01:16:19;;;;;;;8.20;4.40;;;;;;;1.43;100.00;100652.86;105496;1252;60962;-52
2024/03/22 01:18:47;;;;;;;8.00;3.90;;;;;;;1.43;100.00;100650.46;105765;1251;60441;-55
2024/03/22 01:21:14;;;;;;;6.70;3.70;;;;;;;1.43;100.00;100652.55;105691;1252;72756;-52
2024/03/22 01:23:42;;;;;;;7.90;3.90;;;;;;;1.41;100.00;100651.45;105873;1256;66966;-52
2024/03/22 01:26:10;;;;;;;8.50;3.70;;;;;;;1.41;100.00;100654.73;105637;1254;71446;-51
2024/03/22 01:28:37;;;;;;;6.30;3.20;;;;;;;1.41;100.00;100649.92;105691;1260;61176;-52
2024/03/22 01:31:05;;;;;;;7.10;4.10;;;;;;;1.41;100.00;100651.32;105680;1252;60616;-52
2024/03/22 01:33:32;;;;;;;7.30;4.10;;;;;;;1.40;100.00;100651.02;105834;1258;74235;-52
2024/03/22 01:36:00;;;;;;;7.60;3.70;;;;;;;1.40;100.00;100651.55;105729;1256;65653;-52
2024/03/22 01:38:28;;;;;;;6.50;3.80;;;;;;;1.40;100.00;100649.69;105722;1259;71464;-52
2024/03/22 01:40:56;;;;;;;8.20;4.50;;;;;;;1.38;100.00;100649.95;105689;1258;60549;-52
2024/03/22 01:43:23;;;;;;;7.80;4.10;;;;;;;1.38;100.00;100646.86;106083;1251;60425;-53
2024/03/22 01:45:51;;;;;;;7.40;4.60;;;;;;;1.39;100.00;100644.98;105751;1251;73833;-52
2024/03/22 01:48:18;;;;;;;9.10;4.60;;;;;;;1.37;100.00;100642.00;105802;1256;65966;-53
2024/03/22 01:50:46;;;;;;;7.70;4.20;;;;;;;1.37;100.00;100640.34;105715;1257;71421;-52
2024/03/22 01:53:14;;;;;;;5.70;3.30;;;;;;;1.36;100.00;100635.60;105863;1257;60498;-52
2024/03/22 01:55:41;;;;;;;8.40;4.10;;;;;;;1.35;100.00;100636.86;105650;1251;60500;-53
2024/03/22 01:58:09;;;;;;;6.60;3.80;;;;;;;1.35;100.00;100636.67;105875;1256;72674;-55
2024/03/22 02:00:36;;;;;;;6.80;3.40;;;;;;;1.35;100.00;100636.16;105685;1260;65645;-54
2024/03/22 02:03:04;;;;;;;8.20;4.00;;;;;;;1.35;100.00;100632.95;105718;1251;71898;-54
2024/03/22 02:05:32;;;;;;;7.90;4.20;;;;;;;1.36;100.00;100636.79;105736;1256;61253;-54
2024/03/22 02:07:59;;;;;;;6.10;3.50;;;;;;;1.35;100.00;100634.78;105774;1256;61221;-54
2024/03/22 02:10:27;;;;;;;5.90;3.40;;;;;;;1.36;100.00;100637.63;105491;1251;75094;-54
2024/03/22 02:12:55;;;;;;;6.70;3.70;;;;;;;1.37;100.00;100637.41;105764;1251;65633;-54
2024/03/22 02:15:22;;;;;;;9.90;4.40;;;;;;;1.36;100.00;100635.72;105449;1256;73094;-54
2024/03/22 02:17:50;;;;;;;8.30;4.50;;;;;;;1.37;100.00;100637.42;105638;1257;61618;-54
2024/03/22 02:20:18;;;;;;;7.60;3.80;;;;;;;1.35;100.00;100635.86;105773;1251;61192;-54
2024/03/22 02:22:45;;;;;;;7.60;5.00;;;;;;;1.34;100.00;100635.23;105777;1252;74810;-54
2024/03/22 02:25:13;;;;;;;8.60;4.50;;;;;;;1.35;100.00;100635.10;105732;1256;66906;-55
2024/03/22 02:27:41;;;;;;;7.30;4.20;;;;;;;1.37;100.00;100634.52;105756;1256;70473;-54
2024/03/22 02:30:09;;;;;;;9.00;5.00;;;;;;;1.37;100.00;100635.89;105768;1254;61380;-54
2024/03/22 02:32:39;;;;;;;8.60;5.00;;;;;;;1.36;100.00;100633.36;105787;1254;61298;-54
2024/03/22 02:35:07;;;;;;;10.00;4.30;;;;;;;1.38;100.00;100629.93;105765;1254;74659;-55
2024/03/22 02:37:35;;;;;;;8.70;5.30;;;;;;;1.41;100.00;100629.58;105891;1253;65540;-55
2024/03/22 02:40:03;;;;;;;7.90;4.50;;;;;;;1.44;100.00;100626.42;105675;1256;72702;-53
2024/03/22 02:42:30;;;;;;;10.10;5.40;;;;;;;1.46;100.00;100626.45;105655;1254;61272;-54
2024/03/22 02:44:58;;;;;;;8.20;4.80;;;;;;;1.45;100.00;100621.20;105853;1256;61267;-53
2024/03/22 02:47:25;;;;;;;9.70;4.80;;;;;;;1.44;100.00;100620.97;106004;1251;75273;-53
2024/03/22 02:49:53;;;;;;;7.20;4.20;;;;;;;1.44;100.00;100622.86;105465;1256;66966;-53
2024/03/22 02:52:21;;;;;;;8.80;5.50;;;;;;;1.45;100.00;100621.39;105759;1251;72765;-53
2024/03/22 02:54:48;;;;;;;9.40;4.90;;;;;;;1.45;100.00;100618.45;105811;1254;61323;-53
2024/03/22 02:57:16;;;;;;;9.70;5.30;;;;;;;1.44;100.00;100619.73;105714;1254;61253;-53
2024/03/22 02:59:43;;;;;;;9.30;5.50;;;;;;;1.42;100.00;100622.42;106565;1254;75217;-54
2024/03/22 03:02:11;;;;;;;9.60;5.10;;;;;;;1.41;100.00;100617.39;105476;1257;65801;-53
2024/03/22 03:04:38;;;;;;;9.00;5.30;;;;;;;1.41;100.00;100617.44;105731;1257;71252;-53
2024/03/22 03:07:06;;;;;;;9.00;5.40;;;;;;;1.39;100.00;100613.96;105638;1258;61572;-52
2024/03/22 03:09:34;;;;;;;9.10;5.70;;;;;;;1.37;100.00;100614.09;105900;1254;61330;-54
2024/03/22 03:12:01;;;;;;;9.90;5.80;;;;;;;1.36;100.00;100613.66;105291;1254;74701;-53
2024/03/22 03:14:29;;;;;;;10.50;6.20;;;;;;;1.35;100.00;100608.23;105677;1254;66866;-53
2024/03/22 03:16:56;;;;;;;11.40;6.60;;;;;;;1.35;100.00;100614.77;105763;1254;71512;-55
2024/03/22 03:19:24;;;;;;;11.40;7.70;;;;;;;1.36;100.00;100612.48;105998;1254;61138;-54
2024/03/22 03:21:51;;;;;;;10.20;6.90;;;;;;;1.39;100.00;100615.53;105682;1254;61346;-53
2024/03/22 03:24:19;;;;;;;12.00;6.40;;;;;;;1.39;100.00;100612.95;105394;1254;73443;-54
2024/03/22 03:26:46;;;;;;;13.60;7.50;;;;;;;1.37;100.00;100610.68;105683;1253;65647;-54
2024/03/22 03:29:14;;;;;;;12.70;8.00;;;;;;;1.38;100.00;100609.09;105521;1254;72713;-54
2024/03/22 03:31:41;;;;;;;13.40;7.60;;;;;;;1.37;100.00;100613.60;105608;1261;61388;-56
2024/03/22 03:34:09;;;;;;;10.90;6.80;;;;;;;1.35;100.00;100614.61;105364;1260;61943;-54
2024/03/22 03:36:36;;;;;;;9.40;6.20;;;;;;;1.34;100.00;100611.26;105685;1253;73433;-54
2024/03/22 03:39:04;;;;;;;13.70;7.20;;;;;;;1.32;100.00;100609.69;105656;1254;64734;-54
2024/03/22 03:41:31;;;;;;;13.90;7.90;;;;;;;1.31;100.00;100609.42;105800;1257;71514;-54
2024/03/22 03:43:59;;;;;;;15.50;8.20;;;;;;;1.29;100.00;100609.71;105806;1257;61493;-55
2024/03/22 03:46:27;;;;;;;10.40;6.90;;;;;;;1.27;100.00;100611.75;105629;1257;61301;-54
2024/03/22 03:48:54;;;;;;;11.90;7.00;;;;;;;1.25;100.00;100614.34;105689;1257;74672;-54
2024/03/22 03:51:22;;;;;;;11.60;7.60;;;;;;;1.24;100.00;100620.27;105676;1254;66981;-54
2024/03/22 03:53:49;;;;;;;11.40;7.50;;;;;;;1.23;100.00;100617.95;105944;1257;71471;-56
2024/03/22 03:56:17;;;;;;;11.20;7.30;;;;;;;1.20;100.00;100618.11;105430;1254;61241;-54
2024/03/22 03:58:46;;;;;;;11.20;7.30;;;;;;;1.17;100.00;100620.52;105757;1254;61266;-54
2024/03/22 04:01:14;;;;;;;12.00;7.60;;;;;;;1.16;100.00;100619.44;105743;1254;73416;-54
2024/03/22 04:03:41;;;;;;;17.50;8.80;;;;;;;1.15;100.00;100619.81;105686;1260;65726;-54
2024/03/22 04:06:09;;;;;;;13.60;8.50;;;;;;;1.15;100.00;100620.38;105637;1254;74014;-54
2024/03/22 04:08:36;;;;;;;13.70;7.80;;;;;;;1.14;100.00;100617.55;105539;1254;61281;-54
2024/03/22 04:11:04;;;;;;;13.20;7.50;;;;;;;1.14;100.00;100620.23;105677;1258;61186;-54
2024/03/22 04:13:33;;;;;;;13.60;8.70;;;;;;;1.16;100.00;100621.36;105660;1254;74725;-54
2024/03/22 04:16:00;;;;;;;14.50;9.10;;;;;;;1.16;100.00;100620.09;105823;1253;65702;-55
2024/03/22 04:18:28;;;;;;;13.60;7.80;;;;;;;1.16;100.00;100624.03;105621;1254;73189;-54
2024/03/22 04:20:56;;;;;;;12.70;7.40;;;;;;;1.17;100.00;100624.45;105725;1254;61238;-53
2024/03/22 04:31:10;;;;;;;13.80;7.80;;;;;;;1.23;100.00;100625.05;102375;1295;601013;-53
2024/03/22 04:33:38;;;;;;;10.70;7.70;;;;;;;1.19;100.00;100631.84;104624;1271;59740;-54
2024/03/22 04:36:06;;;;;;;14.80;9.00;;;;;;;1.20;100.00;100626.84;105001;1271;59552;-53
2024/03/22 04:38:33;;;;;;;16.70;9.60;;;;;;;1.19;100.00;100625.35;104893;1267;73106;-54
2024/03/22 04:41:01;;;;;;;13.60;8.90;;;;;;;1.20;100.00;100624.75;104487;1270;66436;-53
2024/03/22 04:43:29;;;;;;;15.40;8.20;;;;;;;1.21;100.00;100619.92;104700;1270;221251;-54
2024/03/22 04:45:57;;;;;;;12.10;7.10;;;;;;;1.21;100.00;100619.91;105140;1268;59740;-55
2024/03/22 04:48:24;;;;;;;10.10;7.00;;;;;;;1.20;100.00;100623.05;105007;1269;59654;-53
2024/03/22 04:50:52;;;;;;;12.70;8.40;;;;;;;1.16;100.00;100624.01;104864;1269;71878;-53
2024/03/22 05:01:04;;;;;;;11.50;8.60;;;;;;;1.24;100.00;100620.70;102398;1298;600236;-54
2024/03/22 05:03:32;;;;;;;13.40;8.40;;;;;;;1.27;100.00;100624.77;105031;1270;59584;-54
2024/03/22 06:48:18;;;;;;;14.60;8.60;;;;;;;1.35;100.00;100636.47;102878;1285;613630;-55
2024/03/22 06:50:47;;;;;;;12.00;7.50;;;;;;;1.63;100.00;100627.17;104773;1266;137844;-55
2024/03/22 06:53:15;;;;;;;11.80;7.40;;;;;;;1.71;100.00;100627.63;104824;1265;59760;-54
2024/03/22 06:55:42;;;;;;;12.10;8.10;;;;;;;1.83;100.00;100625.55;104818;1265;72874;-54
2024/03/22 06:58:10;;;;;;;13.90;8.50;;;;;;;1.93;100.00;100629.92;104744;1266;65846;-54
2024/03/22 07:00:38;;;;;;;12.70;8.70;;;;;;;2.02;100.00;100629.74;105306;1261;71491;-56
2024/03/22 07:03:06;;;;;;;13.00;8.10;;;;;;;2.08;100.00;100628.88;105298;1260;60081;-54
2024/03/22 07:05:33;;;;;;;13.20;8.70;;;;;;;2.14;100.00;100627.42;105231;1261;60293;-55
2024/03/22 07:08:01;;;;;;;10.60;7.00;;;;;;;2.22;100.00;100626.82;105244;1260;71855;-54
2024/03/22 07:10:28;;;;;;;12.50;7.30;;;;;;;2.27;100.00;100627.94;105247;1263;66458;-54
2024/03/22 07:12:56;;;;;;;11.70;7.20;;;;;;;2.30;100.00;100628.92;105343;1261;72712;-54
2024/03/22 07:15:24;;;;;;;12.30;7.30;;;;;;;2.34;100.00;100625.83;105112;1261;60355;-55
2024/03/22 07:17:52;;;;;;;14.60;9.00;;;;;;;2.36;100.00;100624.49;105009;1260;62490;-54
2024/03/22 07:20:20;;;;;;;16.50;9.70;;;;;;;2.41;100.00;100621.03;105198;1260;76827;-55
2024/03/22 07:22:49;;;;;;;12.30;8.30;;;;;;;2.50;100.00;100614.84;105440;1263;69883;-55
2024/03/22 07:25:16;;;;;;;14.60;7.40;;;;;;;2.67;100.00;100615.66;105173;1259;75263;-54
2024/03/22 07:27:46;;;;;;;15.30;8.10;;;;;;;2.81;100.00;100618.54;105292;1260;63659;-53
2024/03/22 07:30:14;;;;;;;11.80;6.80;;;;;;;2.84;100.00;100617.04;105241;1257;60313;-54
2024/03/22 07:32:42;;;;;;;11.70;7.90;;;;;;;2.84;100.00;100614.30;105670;1263;76131;-57
2024/03/22 07:35:09;;;;;;;12.70;7.40;;;;;;;2.89;100.00;100612.34;104907;1258;67405;-54
2024/03/22 07:37:37;;;;;;;14.00;7.70;;;;;;;2.93;100.00;100611.15;105347;1264;75314;-55
2024/03/22 07:40:06;;;;;;;10.50;7.20;;;;;;;2.92;100.00;100608.67;105327;1260;60421;-53
2024/03/22 07:42:34;;;;;;;14.20;7.40;;;;;;;2.94;100.00;100606.61;105750;1255;60446;-54
2024/03/22 07:45:01;;;;;;;12.00;8.00;;;;;;;3.03;100.00;100607.29;105703;1254;72625;-56
2024/03/22 07:47:29;;;;;;;16.30;9.40;;;;;;;3.05;100.00;100607.41;105774;1253;68971;-57
2024/03/22 07:49:57;;;;;;;10.80;7.30;;;;;;;3.10;100.00;100600.02;105519;1254;73321;-56
2024/03/22 07:52:25;;;;;;;10.90;6.50;;;;;;;3.24;100.00;100598.02;105470;1255;60611;-56
2024/03/22 07:54:53;;;;;;;14.30;7.70;;;;;;;3.35;100.00;100589.66;105552;1261;63123;-59
2024/03/22 07:57:22;;;;;;;14.00;8.00;;;;;;;3.48;100.00;100585.79;105611;1259;75434;-55
2024/03/22 07:59:50;;;;;;;11.80;7.50;;;;;;;3.64;100.00;100581.89;105535;1253;68928;-55
2024/03/22 08:02:18;;;;;;;13.50;8.10;;;;;;;3.75;100.00;100576.15;105539;1257;74141;-54
2024/03/22 08:04:46;;;;;;;12.40;7.70;;;;;;;3.81;100.00;100570.35;105411;1259;61903;-55
2024/03/22 08:07:14;;;;;;;13.70;8.50;;;;;;;3.84;100.00;100567.29;105424;1260;62726;-55
2024/03/22 08:09:41;;;;;;;12.00;7.80;;;;;;;3.83;100.00;100559.30;105472;1253;75175;-55
2024/03/22 08:12:09;;;;;;;11.50;8.00;;;;;;;3.87;100.00;100561.73;105577;1254;68312;-55
2024/03/22 08:14:37;;;;;;;13.50;7.70;;;;;;;3.88;100.00;100559.70;105430;1259;75711;-55
2024/03/22 08:17:09;;;;;;;13.10;8.70;;;;;;;3.97;100.00;100557.73;105859;1254;62224;-56
2024/03/22 08:19:37;;;;;;;10.80;7.50;;;;;;;4.03;100.00;100558.45;105408;1254;62979;-55
2024/03/22 08:22:05;;;;;;;12.30;8.40;;;;;;;3.95;100.00;100552.65;105643;1259;76871;-55
2024/03/22 08:24:33;;;;;;;13.40;8.80;;;;;;;4.05;100.00;100555.38;105443;1254;68874;-55
2024/03/22 08:27:01;;;;;;;13.80;9.00;;;;;;;4.26;100.00;100549.75;106067;1260;75714;-55
2024/03/22 08:29:29;;;;;;;11.60;7.90;;;;;;;4.43;100.00;100548.19;107268;1258;60977;-53
2024/03/22 08:31:57;;;;;;;12.30;8.60;;;;;;;4.60;100.00;100544.13;105387;1259;62525;-53
2024/03/22 08:34:25;;;;;;;11.80;8.80;;;;;;;4.79;100.00;100547.06;105198;1260;75674;-55
2024/03/22 08:36:53;;;;;;;12.20;7.60;;;;;;;5.04;100.00;100540.52;105525;1260;69894;-54
2024/03/22 08:39:20;;;;;;;11.70;8.10;;;;;;;5.27;100.00;100541.32;105618;1256;74578;-57
2024/03/22 08:41:49;;;;;;;13.20;8.80;;;;;;;5.44;100.00;100538.17;105241;1259;60396;-54
2024/03/22 08:44:17;;;;;;;12.90;7.20;;;;;;;5.49;100.00;100535.44;105611;1255;61855;-55
2024/03/22 08:46:45;;;;;;;11.40;7.90;;;;;;;5.48;100.00;100530.22;105521;1255;75445;-55
2024/03/22 08:49:13;;;;;;;11.00;8.10;;;;;;;5.48;100.00;100529.67;105640;1256;70303;-55
2024/03/22 08:51:41;;;;;;;10.10;7.30;;;;;;;5.44;100.00;100535.92;105546;1254;75297;-54
2024/03/22 08:54:09;;;;;;;12.60;7.90;;;;;;;5.50;100.00;100531.73;105602;1259;61211;-54
2024/03/22 08:56:38;;;;;;;15.40;7.50;;;;;;;5.81;100.00;100529.59;105574;1257;60374;-54
2024/03/22 08:59:05;;;;;;;12.20;7.60;;;;;;;6.06;100.00;100522.98;105600;1254;76412;-54
2024/03/22 09:01:33;;;;;;;11.80;7.90;;;;;;;6.36;100.00;100525.31;105648;1255;68892;-55
2024/03/22 09:04:02;;;;;;;11.20;7.50;;;;;;;6.54;100.00;100517.39;105531;1254;75454;-54
2024/03/22 09:06:30;;;;;;;12.10;6.90;;;;;;;6.75;100.00;100518.02;105515;1260;60449;-54
2024/03/22 09:08:58;;;;;;;11.50;7.40;;;;;;;7.00;100.00;100512.15;105625;1260;61824;-55
2024/03/22 09:11:26;;;;;;;9.40;7.20;;;;;;;7.28;100.00;100506.55;105542;1255;76807;-54
2024/03/22 09:13:54;;;;;;;8.40;6.40;;;;;;;7.57;100.00;100506.73;105728;1255;69769;-58
2024/03/22 09:16:23;;;;;;;11.20;7.40;;;;;;;7.67;97.75;100501.15;105528;1256;74722;-55
2024/03/22 09:18:51;;;;;;;10.00;7.10;;;;;;;7.75;94.23;100495.16;105502;1254;60562;-54
2024/03/22 09:21:19;;;;;;;10.80;7.40;;;;;;;7.97;94.13;100499.06;105551;1254;62657;-55
2024/03/22 09:23:47;;;;;;;10.70;7.40;;;;;;;8.38;90.24;100501.73;105635;1255;76784;-55
2024/03/22 09:26:15;;;;;;;8.90;7.00;;;;;;;8.53;81.73;100497.66;105511;1254;69234;-55
2024/03/22 09:28:46;;;;;;;9.50;7.00;;;;;;;8.65;79.62;100502.67;105485;1256;74061;-55
2024/03/22 09:31:13;;;;;;;9.40;6.50;;;;;;;8.82;74.72;100496.81;105598;1254;61570;-54
2024/03/22 09:33:42;;;;;;;12.50;6.90;;;;;;;8.87;72.60;100490.59;105497;1256;61510;-55
2024/03/22 09:36:10;;;;;;;10.80;6.70;;;;;;;8.95;70.33;100487.74;105667;1260;76731;-55
2024/03/22 09:38:38;;;;;;;10.50;6.70;;;;;;;9.15;71.14;100483.04;105521;1254;68973;-55
2024/03/22 09:41:06;;;;;;;11.40;6.90;;;;;;;9.54;68.59;100483.78;105293;1256;74129;-55
2024/03/22 09:43:34;;;;;;;13.60;7.10;;;;;;;9.68;64.13;100476.81;105315;1260;60789;-56
2024/03/22 09:46:05;;;;;;;11.40;7.20;;;;;;;9.63;61.60;100474.02;105713;1260;61527;-59
2024/03/22 09:48:33;;;;;;;12.40;7.30;;;;;;;9.75;62.34;100471.36;105430;1258;76697;-55
2024/03/22 09:51:01;;;;;;;10.90;6.80;;;;;;;10.00;60.56;100464.85;105235;1258;68226;-55
2024/03/22 09:53:29;;;;;;;11.90;7.00;;;;;;;10.10;58.16;100460.77;105596;1256;74244;-57
2024/03/22 09:55:57;;;;;;;12.90;7.20;;;;;;;9.95;56.67;100460.35;105630;1260;60490;-55
2024/03/22 09:58:25;;;;;;;9.20;6.30;;;;;;;9.68;56.20;100458.75;105913;1254;61008;-54
2024/03/22 10:01:00;;;;;;;10.80;7.00;;;;;;;9.40;56.78;100456.50;104937;1262;76796;-57
2024/03/22 10:03:28;;;;;;;9.70;6.80;;;;;;;9.29;57.67;100454.08;104964;1261;68866;-55
2024/03/22 10:05:55;;;;;;;9.20;5.70;;;;;;;9.36;58.17;100448.16;105359;1255;75671;-54
2024/03/22 10:08:23;;;;;;;8.40;5.90;;;;;;;9.59;58.19;100446.31;107918;1254;61136;-54
2024/03/22 10:10:51;;;;;;;11.80;6.50;;;;;;;9.84;57.50;100440.85;105341;1255;61866;-56
2024/03/22 10:13:19;;;;;;;11.30;6.30;;;;;;;10.17;57.37;100438.94;105262;1254;76598;-55
2024/03/22 10:15:47;;;;;;;10.40;6.80;;;;;;;10.50;56.48;100445.59;105491;1254;70002;-55
2024/03/22 10:18:16;;;;;;;11.10;6.30;;;;;;;10.67;53.91;100437.88;105057;1260;73962;-55
2024/03/22 10:20:44;;;;;;;10.60;6.90;;;;;;;10.70;53.26;100438.08;105469;1256;61804;-56
2024/03/22 10:23:11;;;;;;;10.20;6.30;;;;;;;10.76;52.23;100435.15;105163;1260;61876;-57
2024/03/22 10:25:39;;;;;;;9.60;6.50;;;;;;;10.91;52.58;100434.45;105557;1255;76185;-58
2024/03/22 10:28:07;;;;;;;9.00;6.70;;;;;;;11.16;51.19;100432.33;105153;1260;69214;-55
2024/03/22 10:30:38;;;;;;;8.80;6.00;;;;;;;11.19;50.42;100431.61;105630;1254;72796;-57
2024/03/22 10:33:06;;;;;;;9.50;6.40;;;;;;;11.25;49.93;100430.76;105182;1264;61945;-54
2024/03/22 10:35:33;;;;;;;11.70;6.20;;;;;;;11.22;49.14;100424.70;105327;1259;61305;-57
2024/03/22 10:38:01;;;;;;;10.40;6.90;;;;;;;11.08;49.06;100420.96;105503;1255;76389;-56
2024/03/22 10:40:29;;;;;;;10.10;6.70;;;;;;;11.01;48.96;100418.74;105218;1254;66776;-56
2024/03/22 10:42:57;;;;;;;9.70;6.80;;;;;;;10.73;48.86;100413.86;105493;1260;75178;-56
2024/03/22 10:45:27;;;;;;;8.70;6.00;;;;;;;10.47;49.60;100406.30;105558;1256;61549;-57
2024/03/22 10:47:55;;;;;;;9.10;7.00;;;;;;;10.53;50.40;100401.50;105513;1255;61975;-56
2024/03/22 10:50:24;;;;;;;10.90;7.30;;;;;;;10.69;50.11;100397.06;105525;1254;76636;-55
2024/03/22 10:52:54;;;;;;;9.10;6.20;;;;;;;10.73;49.61;100393.59;105414;1254;69016;-56
2024/03/22 11:01:33;;;;;;;9.70;6.50;;;;;;;11.06;49.23;100380.41;102571;1292;600773;-56
2024/03/22 11:04:05;;;;;;;9.00;6.20;;;;;;;11.31;48.91;100386.33;104998;1270;61906;-57
2024/03/22 11:06:33;;;;;;;12.90;6.70;;;;;;;11.51;48.93;100382.49;108519;1263;58787;-55
2024/03/22 11:09:01;;;;;;;9.20;6.20;;;;;;;11.83;48.48;100380.52;108593;1263;75118;-57
2024/03/22 11:11:31;;;;;;;10.30;6.50;;;;;;;12.18;47.60;100378.38;108510;1263;67864;-56
2024/03/22 11:13:58;;;;;;;11.10;6.70;;;;;;;12.32;46.42;100366.42;108438;1261;213411;-56
2024/03/22 11:16:26;;;;;;;10.20;6.80;;;;;;;12.56;46.30;100365.38;108657;1263;60981;-56
2024/03/22 11:18:53;;;;;;;11.10;6.90;;;;;;;12.59;44.76;100360.27;108682;1260;60079;-57
2024/03/22 11:21:22;;;;;;;10.30;6.60;;;;;;;12.38;45.19;100355.61;108659;1260;75156;-55
2024/03/22 11:23:49;;;;;;;8.80;6.30;;;;;;;12.56;45.16;100352.47;108750;1260;66839;-56
2024/03/22 11:26:17;;;;;;;8.80;6.00;;;;;;;12.60;44.38;100350.29;108683;1260;74795;-56
2024/03/22 11:28:45;;;;;;;11.50;7.90;;;;;;;12.70;45.00;100346.83;108666;1260;62970;-55
2024/03/22 11:31:13;;;;;;;11.40;6.80;;;;;;;12.97;44.05;100343.08;108632;1261;62184;-59
2024/03/22 11:33:41;;;;;;;9.10;6.20;;;;;;;13.03;43.52;100339.07;108725;1261;75233;-55
2024/03/22 11:36:08;;;;;;;10.80;6.30;;;;;;;12.99;43.66;100332.41;108694;1260;68921;-56
2024/03/22 11:38:36;;;;;;;11.80;8.10;;;;;;;13.04;43.38;100330.34;108765;1260;73794;-56
2024/03/22 11:41:04;;;;;;;9.50;7.00;;;;;;;12.97;43.17;100328.09;108679;1260;62232;-59
2024/03/22 11:43:31;;;;;;;10.90;7.00;;;;;;;12.85;43.19;100325.36;108734;1260;61107;-56
2024/03/22 11:46:01;;;;;;;9.60;6.70;;;;;;;12.78;43.23;100330.02;108652;1260;77031;-57
2024/03/22 11:48:28;;;;;;;10.50;6.80;;;;;;;12.60;43.03;100333.59;108712;1262;68923;-55
2024/03/22 11:50:58;;;;;;;13.00;7.40;;;;;;;12.24;43.07;100328.48;108399;1263;71051;-56
2024/03/22 11:53:26;;;;;;;14.20;7.00;;;;;;;11.92;43.77;100326.52;108700;1262;61175;-56
2024/03/22 11:55:53;;;;;;;10.70;7.00;;;;;;;11.77;44.16;100325.20;108642;1262;61247;-55
2024/03/22 11:58:21;;;;;;;17.10;7.80;;;;;;;11.66;44.67;100317.31;108765;1261;76354;-58
2024/03/22 12:00:49;;;;;;;12.90;8.30;;;;;;;11.67;44.91;100315.08;108649;1263;65451;-55
2024/03/22 12:03:36;;;;;;;9.00;6.90;;;;;;;11.68;45.20;100307.81;108549;1262;74187;-54
2024/03/22 12:06:04;;;;;;;10.70;6.20;;;;;;;11.87;45.23;100307.23;108593;1264;62608;-55
2024/03/22 12:08:32;;;;;;;14.20;6.70;;;;;;;12.13;44.92;100303.83;108598;1263;62855;-57
2024/03/22 12:10:59;;;;;;;16.10;7.80;;;;;;;12.19;44.47;100300.16;108649;1262;75364;-55
2024/03/22 12:13:27;;;;;;;9.10;6.50;;;;;;;12.12;44.48;100297.42;108578;1264;68913;-56
2024/03/22 12:15:55;;;;;;;9.40;6.00;;;;;;;12.08;44.32;100296.47;108667;1263;74761;-54
2024/03/22 12:18:23;;;;;;;10.10;6.70;;;;;;;12.05;44.40;100294.28;108669;1262;61539;-55
2024/03/22 12:20:50;;;;;;;11.10;7.30;;;;;;;11.97;44.51;100286.19;108660;1262;61173;-56
2024/03/22 12:23:18;;;;;;;12.80;8.00;;;;;;;11.99;44.75;100283.91;108648;1263;75124;-56
2024/03/22 12:25:45;;;;;;;10.80;6.50;;;;;;;12.00;44.61;100281.83;108605;1263;68233;-57
2024/03/22 12:28:14;;;;;;;10.60;6.80;;;;;;;11.99;44.73;100281.30;108633;1264;75270;-56
2024/03/22 12:30:42;;;;;;;11.20;6.80;;;;;;;11.97;44.42;100278.92;108631;1263;62655;-56
2024/03/22 12:33:10;;;;;;;10.00;7.00;;;;;;;11.87;44.45;100275.35;108609;1263;58218;-56
2024/03/22 12:35:39;;;;;;;9.20;6.70;;;;;;;11.76;44.50;100267.16;108599;1262;76421;-60
2024/03/22 12:38:13;;;;;;;9.60;6.50;;;;;;;11.81;45.03;100261.64;108518;1263;68986;-56
2024/03/22 12:40:41;;;;;;;13.20;7.40;;;;;;;12.06;44.96;100257.44;108678;1262;75350;-56
2024/03/22 12:43:09;;;;;;;14.60;9.10;;;;;;;12.22;44.40;100260.45;108571;1262;60565;-55
2024/03/22 12:45:37;;;;;;;9.50;6.00;;;;;;;12.27;44.14;100260.72;108510;1262;61449;-55
2024/03/22 12:48:05;;;;;;;9.00;6.30;;;;;;;12.17;43.77;100257.29;108561;1263;75411;-55
2024/03/22 12:50:35;;;;;;;10.80;7.00;;;;;;;12.02;43.92;100255.13;108510;1263;69691;-56
2024/03/22 12:53:04;;;;;;;11.70;7.10;;;;;;;11.89;43.84;100254.11;108669;1262;74846;-56
2024/03/22 12:55:32;;;;;;;7.80;5.90;;;;;;;11.75;44.43;100256.45;108761;1259;62604;-55
2024/03/22 12:58:00;;;;;;;8.30;6.00;;;;;;;11.75;44.63;100254.46;108798;1259;62604;-56
2024/03/22 13:00:28;;;;;;;9.70;5.70;;;;;;;11.84;44.58;100247.56;108809;1260;76398;-56
2024/03/22 13:02:56;;;;;;;8.90;5.70;;;;;;;12.02;44.91;100245.70;108802;1259;68781;-54
2024/03/22 13:05:25;;;;;;;9.50;7.10;;;;;;;12.30;44.72;100239.02;108757;1259;74187;-55
2024/03/22 13:07:53;;;;;;;10.40;7.20;;;;;;;12.45;43.65;100232.89;108670;1260;61535;-56
2024/03/22 13:10:20;;;;;;;8.80;5.50;;;;;;;12.33;43.33;100228.57;108863;1259;62571;-55
2024/03/22 13:12:48;;;;;;;7.90;5.40;;;;;;;12.22;43.35;100232.67;108862;1259;76484;-55
2024/03/22 13:15:16;;;;;;;11.20;7.00;;;;;;;12.14;43.55;100232.71;108869;1259;68042;-56
2024/03/22 13:17:44;;;;;;;9.50;5.60;;;;;;;12.13;43.70;100234.00;108760;1259;71436;-56